createdAt,value
2018-05-25T00:02:13.524Z,3.00
2018-05-25T00:04:39.756Z,5.53
2018-05-25T00:07:06.043Z,4.63
2018-05-25T00:09:32.336Z,4.10
2018-05-25T00:11:59.457Z,5.30
2018-05-25T00:14:27.024Z,3.57
2018-05-25T00:16:54.000Z,3.53
2018-05-25T00:19:20.522Z,3.43
2018-05-25T00:21:46.978Z,3.93
2018-05-25T00:24:13.218Z,3.30
2018-05-25T00:26:40.059Z,3.80
2018-05-25T00:29:07.005Z,4.20
2018-05-25T00:31:34.037Z,2.90
2018-05-25T00:34:01.026Z,3.53
2018-05-25T00:36:27.585Z,2.97
2018-05-25T00:38:53.901Z,2.80
2018-05-25T00:41:20.124Z,2.93
2018-05-25T00:43:46.855Z,4.80
2018-05-25T00:46:13.805Z,6.67
2018-05-25T00:48:41.492Z,3.27
2018-05-25T00:51:08.221Z,4.33
2018-05-25T00:53:34.450Z,4.63
2018-05-25T00:56:00.708Z,3.17
2018-05-25T00:58:27.476Z,2.47
2018-05-25T01:00:53.749Z,2.77
2018-05-25T01:03:20.731Z,5.03
2018-05-25T01:05:46.976Z,3.60
2018-05-25T01:08:13.207Z,2.90
2018-05-25T01:10:39.519Z,2.80
2018-05-25T01:13:07.043Z,2.50
2018-05-25T01:15:33.929Z,2.47
2018-05-25T01:18:00.929Z,2.50
2018-05-25T01:20:27.735Z,2.33
2018-05-25T01:22:53.964Z,4.63
2018-05-25T01:25:20.956Z,3.30
2018-05-25T01:27:48.322Z,3.10
2018-05-25T01:30:15.295Z,3.07
2018-05-25T01:32:41.542Z,4.30
2018-05-25T01:35:07.772Z,3.97
2018-05-25T01:37:34.030Z,3.30
2018-05-25T01:40:01.022Z,2.00
2018-05-25T01:42:27.352Z,2.67
2018-05-25T01:44:54.035Z,2.50
2018-05-25T01:47:20.978Z,4.90
2018-05-25T01:49:48.883Z,2.97
2018-05-25T01:52:16.171Z,4.87
2018-05-25T01:54:42.403Z,2.50
2018-05-25T01:57:09.220Z,3.50
2018-05-25T01:59:36.808Z,2.30
2018-05-25T02:02:03.553Z,4.70
2018-05-25T02:04:29.785Z,3.10
2018-05-25T02:06:56.250Z,9.77
2018-05-25T02:09:23.270Z,8.50
2018-05-25T02:11:49.543Z,3.17
2018-05-25T02:14:16.236Z,3.20
2018-05-25T02:16:43.805Z,4.33
2018-05-25T02:19:10.784Z,3.57
2018-05-25T02:21:37.000Z,3.30
2018-05-25T02:24:03.835Z,4.97
2018-05-25T02:26:31.403Z,3.80
2018-05-25T02:28:58.856Z,4.90
2018-05-25T02:31:25.816Z,3.20
2018-05-25T02:33:52.801Z,3.07
2018-05-25T02:36:19.412Z,3.63
2018-05-25T02:38:45.664Z,3.10
2018-05-25T02:41:11.920Z,3.07
2018-05-25T02:43:38.696Z,5.20
2018-05-25T02:46:05.680Z,3.40
2018-05-25T02:48:32.256Z,4.13
2018-05-25T02:50:58.484Z,4.70
2018-05-25T02:53:24.702Z,5.23
2018-05-25T02:55:50.953Z,4.10
2018-05-25T02:58:17.867Z,4.93
2018-05-25T03:00:44.844Z,3.20
2018-05-25T03:03:11.080Z,4.23
2018-05-25T03:05:37.516Z,2.60
2018-05-25T03:08:04.177Z,4.43
2018-05-25T03:10:30.832Z,4.30
2018-05-25T03:12:57.498Z,4.60
2018-05-25T03:15:23.755Z,4.70
2018-05-25T03:17:49.978Z,10.77
2018-05-25T03:20:16.225Z,14.07
2018-05-25T03:22:43.787Z,16.37
2018-05-25T03:25:11.397Z,13.03
2018-05-25T03:27:38.149Z,8.17
2018-05-25T03:30:04.387Z,8.43
2018-05-25T03:32:30.609Z,9.47
2018-05-25T03:34:56.857Z,5.93
2018-05-25T03:37:23.098Z,6.03
2018-05-25T03:39:49.659Z,5.30
2018-05-25T03:42:16.473Z,4.30
2018-05-25T03:44:43.188Z,5.17
2018-05-25T03:47:09.994Z,4.87
2018-05-25T03:49:36.233Z,4.10
2018-05-25T03:52:02.458Z,4.50
2018-05-25T03:54:28.710Z,2.73
2018-05-25T03:56:55.682Z,4.10
2018-05-25T03:59:34.582Z,6.43
2018-05-25T04:02:01.648Z,3.40
2018-05-25T04:04:29.115Z,2.50
2018-05-25T04:06:56.427Z,4.33
2018-05-25T04:09:22.641Z,4.70
2018-05-25T04:11:48.893Z,4.30
2018-05-25T04:14:15.647Z,6.50
2018-05-25T04:16:41.828Z,2.80
2018-05-25T04:19:08.411Z,2.73
2018-05-25T04:21:35.306Z,4.10
2018-05-25T04:24:03.800Z,3.47
2018-05-25T04:26:31.091Z,9.80
2018-05-25T04:28:57.900Z,3.13
2018-05-25T04:31:24.864Z,3.47
2018-05-25T04:33:51.100Z,2.43
2018-05-25T04:36:17.368Z,5.30
2018-05-25T04:38:44.348Z,4.20
2018-05-25T04:41:11.008Z,3.90
2018-05-25T04:43:38.475Z,4.33
2018-05-25T04:46:05.446Z,4.00
2018-05-25T04:48:32.168Z,6.17
2018-05-25T04:50:59.155Z,5.80
2018-05-25T04:53:25.378Z,4.80
2018-05-25T04:55:52.125Z,2.80
2018-05-25T04:58:19.262Z,2.90
2018-05-25T05:00:46.228Z,3.87
2018-05-25T05:03:13.025Z,3.07
2018-05-25T05:05:39.243Z,3.80
2018-05-25T05:08:05.482Z,3.50
2018-05-25T05:10:31.748Z,9.50
2018-05-25T05:12:59.108Z,7.87
2018-05-25T05:15:26.084Z,5.07
2018-05-25T05:17:52.797Z,2.87
2018-05-25T05:20:19.409Z,3.23
2018-05-25T05:22:45.844Z,4.13
2018-05-25T05:25:12.062Z,4.67
2018-05-25T05:27:38.682Z,2.50
2018-05-25T05:30:04.953Z,3.00
2018-05-25T05:32:31.171Z,4.10
2018-05-25T05:34:57.447Z,4.20
2018-05-25T05:37:23.984Z,5.23
2018-05-25T05:39:50.975Z,3.90
2018-05-25T05:42:18.746Z,7.40
2018-05-25T05:44:46.267Z,2.93
2018-05-25T05:47:13.256Z,2.90
2018-05-25T05:49:40.681Z,3.70
2018-05-25T05:52:06.896Z,3.30
2018-05-25T05:54:33.903Z,4.27
2018-05-25T05:57:01.336Z,3.37
2018-05-25T05:59:28.212Z,2.93
2018-05-25T06:01:55.508Z,3.47
2018-05-25T06:04:21.762Z,5.23
2018-05-25T06:06:48.017Z,4.23
2018-05-25T06:09:15.001Z,3.20
2018-05-25T06:11:41.891Z,2.40
2018-05-25T06:14:09.457Z,2.80
2018-05-25T06:16:36.400Z,3.70
2018-05-25T06:19:02.687Z,3.50
2018-05-25T06:21:28.899Z,2.97
2018-05-25T06:23:55.164Z,2.93
2018-05-25T06:26:22.216Z,3.23
2018-05-25T06:28:49.769Z,3.63
2018-05-25T06:31:16.756Z,3.50
2018-05-25T06:33:43.833Z,6.07
2018-05-25T06:36:10.943Z,4.77
2018-05-25T06:38:37.202Z,3.83
2018-05-25T06:41:03.412Z,4.40
2018-05-25T06:43:30.096Z,3.20
2018-05-25T06:45:56.744Z,3.00
2018-05-25T06:48:23.507Z,3.07
2018-05-25T06:50:49.738Z,3.07
2018-05-25T06:53:16.000Z,2.60
2018-05-25T06:55:42.984Z,16.10
2018-05-25T06:58:10.502Z,4.13
2018-05-25T07:00:36.722Z,2.27
2018-05-25T07:03:02.952Z,2.60
2018-05-25T07:05:29.184Z,2.60
2018-05-25T07:07:55.400Z,2.53
2018-05-25T07:10:21.692Z,3.87
2018-05-25T07:12:49.568Z,4.30
2018-05-25T07:15:17.171Z,5.07
2018-05-25T07:17:43.393Z,2.80
2018-05-25T07:20:09.620Z,6.23
2018-05-25T07:22:35.897Z,6.47
2018-05-25T07:25:02.130Z,2.70
2018-05-25T07:27:28.856Z,2.33
2018-05-25T07:29:55.788Z,2.27
2018-05-25T07:32:22.600Z,2.53
2018-05-25T07:34:49.880Z,2.50
2018-05-25T07:37:16.579Z,3.33
2018-05-25T07:39:42.798Z,6.33
2018-05-25T07:42:09.018Z,4.83
2018-05-25T07:44:35.657Z,6.43
2018-05-25T07:47:02.768Z,5.10
2018-05-25T07:49:30.262Z,4.63
2018-05-25T07:51:56.930Z,3.43
2018-05-25T07:54:23.201Z,2.03
2018-05-25T07:56:49.868Z,2.63
2018-05-25T07:59:17.352Z,2.30
2018-05-25T08:01:43.597Z,2.10
2018-05-25T08:04:09.868Z,2.20
2018-05-25T08:06:36.099Z,2.80
2018-05-25T08:09:04.713Z,2.37
2018-05-25T08:11:31.698Z,3.20
2018-05-25T08:13:58.408Z,3.00
2018-05-25T08:16:25.361Z,4.60
2018-05-25T08:18:52.973Z,2.20
2018-05-25T08:21:19.206Z,2.70
2018-05-25T08:23:45.436Z,4.40
2018-05-25T08:26:12.249Z,3.30
2018-05-25T08:28:40.936Z,3.90
2018-05-25T08:31:08.153Z,2.40
2018-05-25T08:33:34.762Z,1.80
2018-05-25T08:36:01.010Z,3.20
2018-05-25T08:38:27.325Z,3.10
2018-05-25T08:40:53.716Z,5.80
2018-05-25T08:43:37.034Z,2.03
2018-05-25T08:46:04.072Z,3.40
2018-05-25T08:48:30.868Z,3.23
2018-05-25T08:50:58.536Z,3.93
2018-05-25T08:53:25.938Z,1.80
2018-05-25T08:55:52.168Z,2.10
2018-05-25T08:58:18.762Z,1.90
2018-05-25T09:00:45.715Z,2.03
2018-05-25T09:03:12.680Z,3.80
2018-05-25T09:05:38.956Z,2.87
2018-05-25T09:08:06.465Z,2.57
2018-05-25T09:10:33.899Z,2.20
2018-05-25T09:13:00.547Z,1.97
2018-05-25T09:15:26.786Z,2.30
2018-05-25T09:17:53.005Z,2.30
2018-05-25T09:20:19.250Z,3.80
2018-05-25T09:22:45.474Z,2.47
2018-05-25T09:25:11.775Z,2.10
2018-05-25T09:27:38.493Z,2.60
2018-05-25T09:30:05.899Z,2.70
2018-05-25T09:32:32.129Z,3.20
2018-05-25T09:34:58.362Z,2.40
2018-05-25T09:37:24.632Z,2.10
2018-05-25T09:39:50.849Z,2.50
2018-05-25T09:42:17.179Z,2.60
2018-05-25T09:44:43.969Z,3.67
2018-05-25T09:47:11.744Z,3.70
2018-05-25T09:49:38.710Z,2.53
2018-05-25T09:52:05.384Z,2.37
2018-05-25T09:54:31.628Z,2.17
2018-05-25T09:56:59.872Z,2.67
2018-05-25T09:59:26.561Z,6.20
2018-05-25T10:01:52.803Z,2.00
2018-05-25T10:04:21.324Z,1.70
2018-05-25T10:06:47.586Z,3.20
2018-05-25T10:09:14.256Z,2.10
2018-05-25T10:11:40.501Z,4.07
2018-05-25T10:14:07.391Z,2.90
2018-05-25T10:16:33.624Z,2.20
2018-05-25T10:18:59.851Z,5.30
2018-05-25T10:21:26.837Z,4.60
2018-05-25T10:23:53.861Z,2.10
2018-05-25T10:26:20.117Z,2.23
2018-05-25T10:28:46.866Z,2.53
2018-05-25T10:31:13.130Z,1.93
2018-05-25T10:33:39.375Z,2.27
2018-05-25T10:36:05.639Z,2.47
2018-05-25T10:38:31.876Z,6.23
2018-05-25T10:40:58.272Z,2.23
2018-05-25T10:43:25.090Z,8.80
2018-05-25T10:45:52.000Z,4.50
2018-05-25T10:48:20.077Z,2.80
2018-05-25T10:50:47.047Z,6.63
2018-05-25T10:53:13.622Z,3.10
2018-05-25T10:55:39.851Z,3.20
2018-05-25T10:58:07.273Z,3.77
2018-05-25T11:00:33.538Z,3.50
2018-05-25T11:03:00.072Z,3.33
2018-05-25T11:05:26.790Z,3.20
2018-05-25T11:07:53.749Z,2.87
2018-05-25T11:10:19.996Z,2.87
2018-05-25T11:12:46.850Z,2.73
2018-05-25T11:15:13.098Z,3.43
2018-05-25T11:17:39.323Z,2.43
2018-05-25T11:20:05.618Z,2.33
2018-05-25T11:22:33.610Z,2.80
2018-05-25T11:25:00.481Z,3.00
2018-05-25T11:27:27.217Z,4.63
2018-05-25T11:29:53.433Z,2.23
2018-05-25T11:32:19.659Z,4.63
2018-05-25T11:34:46.667Z,3.20
2018-05-25T11:37:12.881Z,4.17
2018-05-25T11:39:39.690Z,3.70
2018-05-25T11:42:06.666Z,3.00
2018-05-25T11:44:33.496Z,2.70
2018-05-25T11:47:01.573Z,3.40
2018-05-25T11:49:28.556Z,5.30
2018-05-25T11:51:55.192Z,1.80
2018-05-25T11:54:21.422Z,1.97
2018-05-25T11:56:47.666Z,1.80
2018-05-25T11:59:14.377Z,2.13
2018-05-25T12:01:42.271Z,2.07
2018-05-25T12:04:09.712Z,2.63
2018-05-25T12:06:37.238Z,2.00
2018-05-25T12:09:04.201Z,2.57
2018-05-25T12:11:30.800Z,1.93
2018-05-25T12:13:57.716Z,2.60
2018-05-25T12:16:24.739Z,2.13
2018-05-25T12:18:50.960Z,2.00
2018-05-25T12:21:17.851Z,1.53
2018-05-25T12:23:45.716Z,1.60
2018-05-25T12:26:12.704Z,2.03
2018-05-25T12:28:39.421Z,2.60
2018-05-25T12:31:06.386Z,2.90
2018-05-25T12:33:32.659Z,1.77
2018-05-25T12:35:59.361Z,1.60
2018-05-25T12:38:25.592Z,2.47
2018-05-25T12:40:51.806Z,2.17
2018-05-25T12:43:19.049Z,4.17
2018-05-25T12:45:45.296Z,1.83
2018-05-25T12:48:11.952Z,2.30
2018-05-25T12:50:38.968Z,1.60
2018-05-25T12:53:05.212Z,1.60
2018-05-25T12:55:31.448Z,1.60
2018-05-25T12:57:58.452Z,3.47
2018-05-25T13:00:25.169Z,2.50
2018-05-25T13:02:52.139Z,1.60
2018-05-25T13:05:18.374Z,2.00
2018-05-25T13:07:44.618Z,1.83
2018-05-25T13:10:10.850Z,2.10
2018-05-25T13:12:38.185Z,1.70
2018-05-25T13:15:05.179Z,3.33
2018-05-25T13:17:32.169Z,1.90
2018-05-25T13:19:58.952Z,2.17
2018-05-25T13:22:25.549Z,2.33
2018-05-25T13:24:51.788Z,2.63
2018-05-25T13:27:19.281Z,1.93
2018-05-25T13:29:46.170Z,2.00
2018-05-25T13:32:12.396Z,2.30
2018-05-25T13:34:39.393Z,2.13
2018-05-25T13:37:05.887Z,2.40
2018-05-25T13:39:32.643Z,1.93
2018-05-25T13:41:59.393Z,2.43
2018-05-25T13:44:26.261Z,2.30
2018-05-25T13:46:52.909Z,2.40
2018-05-25T13:49:19.587Z,2.63
2018-05-25T13:51:45.833Z,2.17
2018-05-25T13:54:12.058Z,2.93
2018-05-25T13:56:38.821Z,1.93
2018-05-25T13:59:05.947Z,2.53
2018-05-25T14:01:32.901Z,2.10
2018-05-25T14:03:59.858Z,2.20
2018-05-25T14:06:26.120Z,2.53
2018-05-25T14:08:52.355Z,3.30
2018-05-25T14:11:18.685Z,2.93
2018-05-25T14:13:45.368Z,4.27
2018-05-25T14:16:11.979Z,5.13
2018-05-25T14:18:38.744Z,3.57
2018-05-25T14:21:05.489Z,2.23
2018-05-25T14:23:31.700Z,2.40
2018-05-25T14:25:58.441Z,3.07
2018-05-25T14:28:25.468Z,8.57
2018-05-25T14:30:52.429Z,7.40
2018-05-25T14:33:18.676Z,7.73
2018-05-25T14:35:59.854Z,5.03
2018-05-25T14:38:26.515Z,9.53
2018-05-25T14:40:53.056Z,10.60
2018-05-25T14:43:19.676Z,6.97
2018-05-25T14:45:46.118Z,9.27
2018-05-25T14:48:13.577Z,8.53
2018-05-25T14:50:39.875Z,12.43
2018-05-25T14:53:07.457Z,8.10
2018-05-25T14:55:34.429Z,8.00
2018-05-25T14:58:01.382Z,10.03
2018-05-25T15:00:28.452Z,7.80
2018-05-25T15:02:55.484Z,11.00
2018-05-25T15:05:21.827Z,6.43
2018-05-25T15:07:48.666Z,10.07
2018-05-25T15:10:15.584Z,7.07
2018-05-25T15:12:43.382Z,4.27
2018-05-25T15:15:10.147Z,6.03
2018-05-25T15:17:37.858Z,5.40
2018-05-25T15:20:04.240Z,5.57
2018-05-25T15:22:30.469Z,5.10
2018-05-25T15:24:56.733Z,6.63
2018-05-25T15:27:23.410Z,6.57
2018-05-25T15:29:49.654Z,13.00
2018-05-25T15:32:16.640Z,8.53
2018-05-25T15:34:43.355Z,9.67
2018-05-25T15:37:10.725Z,6.80
2018-05-25T15:39:37.337Z,5.30
2018-05-25T15:42:05.028Z,8.20
2018-05-25T15:44:32.778Z,9.77
2018-05-25T15:47:00.132Z,8.30
2018-05-25T15:49:26.998Z,7.53
2018-05-25T15:51:54.428Z,5.73
2018-05-25T15:54:20.952Z,4.77
2018-05-25T15:56:47.184Z,8.00
2018-05-25T15:59:13.842Z,6.50
2018-05-25T16:01:40.064Z,11.47
2018-05-25T16:04:08.100Z,7.43
2018-05-25T16:06:34.330Z,9.73
2018-05-25T16:09:01.300Z,7.07
2018-05-25T16:11:28.020Z,6.90
2018-05-25T16:13:55.312Z,13.03
2018-05-25T16:16:22.123Z,7.03
2018-05-25T16:18:49.102Z,10.20
2018-05-25T16:21:15.362Z,12.17
2018-05-25T16:23:41.778Z,12.80
2018-05-25T16:26:08.262Z,8.73
2018-05-25T16:28:35.272Z,8.43
2018-05-25T16:31:01.605Z,6.23
2018-05-25T16:33:28.965Z,9.43
2018-05-25T16:35:55.340Z,8.63
2018-05-25T16:38:21.654Z,12.13
2018-05-25T16:40:48.593Z,9.63
2018-05-25T16:43:16.769Z,9.60
2018-05-25T16:45:43.977Z,10.37
2018-05-25T16:48:10.936Z,10.23
2018-05-25T16:50:39.323Z,7.10
2018-05-25T16:53:05.709Z,6.70
2018-05-25T16:55:32.120Z,6.53
2018-05-25T16:57:59.087Z,5.50
2018-05-25T17:00:25.965Z,5.40
2018-05-25T17:02:52.905Z,5.27
2018-05-25T17:05:19.783Z,14.43
2018-05-25T17:07:46.728Z,5.87
2018-05-25T17:10:13.632Z,5.40
2018-05-25T17:12:40.871Z,4.27
2018-05-25T17:15:07.181Z,5.23
2018-05-25T17:17:33.437Z,4.40
2018-05-25T17:20:00.741Z,4.50
2018-05-25T17:22:26.989Z,4.83
2018-05-25T17:24:53.243Z,7.23
2018-05-25T17:27:20.580Z,5.13
2018-05-25T17:29:46.818Z,3.27
2018-05-25T17:32:13.711Z,3.10
2018-05-25T17:34:40.426Z,5.53
2018-05-25T17:37:07.066Z,5.50
2018-05-25T17:39:33.965Z,5.50
2018-05-25T17:42:00.202Z,7.20
2018-05-25T17:44:26.885Z,7.80
2018-05-25T17:46:54.092Z,4.13
2018-05-25T17:49:20.667Z,4.50
2018-05-25T17:51:46.933Z,3.80
2018-05-25T17:54:13.172Z,2.90
2018-05-25T17:56:40.547Z,3.20
2018-05-25T17:59:08.010Z,2.63
2018-05-25T18:01:34.991Z,4.50
2018-05-25T18:04:01.226Z,3.00
2018-05-25T18:06:28.042Z,3.00
2018-05-25T18:08:55.372Z,2.40
2018-05-25T18:11:21.615Z,2.33
2018-05-25T18:13:48.228Z,2.20
2018-05-25T18:16:14.460Z,2.10
2018-05-25T18:18:41.123Z,2.97
2018-05-25T18:21:07.365Z,3.30
2018-05-25T18:23:33.612Z,5.40
2018-05-25T18:26:00.642Z,4.33
2018-05-25T18:28:27.300Z,2.47
2018-05-25T18:30:53.907Z,2.60
2018-05-25T18:33:20.150Z,2.60
2018-05-25T18:35:47.147Z,2.47
2018-05-25T18:38:14.139Z,3.83
2018-05-25T18:40:40.721Z,2.90
2018-05-25T18:43:07.607Z,3.47
2018-05-25T18:45:34.425Z,2.40
2018-05-25T18:48:01.046Z,2.93
2018-05-25T18:50:27.653Z,2.90
2018-05-25T18:52:53.922Z,4.00
2018-05-25T18:55:20.610Z,2.60
2018-05-25T18:57:47.896Z,2.97
2018-05-25T19:00:14.105Z,2.40
2018-05-25T19:02:40.801Z,4.93
2018-05-25T19:05:07.542Z,3.33
2018-05-25T19:07:34.645Z,3.50
2018-05-25T19:10:00.898Z,4.10
2018-05-25T19:12:27.743Z,7.30
2018-05-25T19:14:53.985Z,2.20
2018-05-25T19:17:20.219Z,2.40
2018-05-25T19:19:46.896Z,2.40
2018-05-25T19:22:13.148Z,2.23
2018-05-25T19:24:40.144Z,5.33
2018-05-25T19:27:06.997Z,2.60
2018-05-25T19:29:34.842Z,3.00
2018-05-25T19:32:01.815Z,2.47
2018-05-25T19:34:28.046Z,4.07
2018-05-25T19:36:54.614Z,2.93
2018-05-25T19:39:21.733Z,3.73
2018-05-25T19:41:48.526Z,3.40
2018-05-25T19:44:15.915Z,2.80
2018-05-25T19:46:43.501Z,3.60
2018-05-25T19:49:10.224Z,3.20
2018-05-25T19:51:37.124Z,3.30
2018-05-25T19:54:03.386Z,2.87
2018-05-25T19:56:29.608Z,2.37
2018-05-25T19:58:56.435Z,2.33
2018-05-25T20:01:22.998Z,2.90
2018-05-25T20:03:49.707Z,2.30
2018-05-25T20:06:16.362Z,2.90
2018-05-25T20:08:42.642Z,3.50
2018-05-25T20:11:08.985Z,2.40
2018-05-25T20:13:35.831Z,2.50
2018-05-25T20:16:02.170Z,3.60
2018-05-25T20:18:29.162Z,6.10
2018-05-25T20:20:55.400Z,4.10
2018-05-25T20:23:22.654Z,7.37
2018-05-25T20:25:49.336Z,4.10
2018-05-25T20:28:16.187Z,3.50
2018-05-25T20:30:42.417Z,3.97
2018-05-25T20:33:09.246Z,4.47
2018-05-25T20:35:36.080Z,3.90
2018-05-25T20:38:02.947Z,3.23
2018-05-25T20:40:29.912Z,5.93
2018-05-25T20:42:56.666Z,3.07
2018-05-25T20:45:23.321Z,2.90
2018-05-25T20:47:50.110Z,4.13
2018-05-25T20:50:16.707Z,2.70
2018-05-25T20:52:42.947Z,7.60
2018-05-25T20:55:09.171Z,4.60
2018-05-25T20:57:36.458Z,3.20
2018-05-25T21:00:03.854Z,2.80
2018-05-25T21:02:30.455Z,2.70
2018-05-25T21:04:57.417Z,2.87
2018-05-25T21:07:24.401Z,2.33
2018-05-25T21:09:50.658Z,12.03
2018-05-25T21:12:17.591Z,2.97
2018-05-25T21:14:43.809Z,2.00
2018-05-25T21:17:10.680Z,3.70
2018-05-25T21:19:37.480Z,4.00
2018-05-25T21:22:04.873Z,9.90
2018-05-25T21:24:31.096Z,4.53
2018-05-25T21:26:57.330Z,4.30
2018-05-25T21:29:23.872Z,7.10
2018-05-25T21:31:50.114Z,3.40
2018-05-25T21:34:16.349Z,5.20
2018-05-25T21:36:42.906Z,4.27
2018-05-25T21:39:09.515Z,4.13
2018-05-25T21:41:36.298Z,2.47
2018-05-25T21:44:02.919Z,2.50
2018-05-25T21:46:29.130Z,2.73
2018-05-25T21:48:55.702Z,3.10
2018-05-25T21:51:22.410Z,2.70
2018-05-25T21:53:49.360Z,3.93
2018-05-25T21:56:17.658Z,2.73
2018-05-25T21:58:44.413Z,2.33
2018-05-25T22:01:11.128Z,3.23
2018-05-25T22:03:38.697Z,3.30
2018-05-25T22:06:06.264Z,3.10
2018-05-25T22:08:33.590Z,4.27
2018-05-25T22:10:59.809Z,4.33
2018-05-25T22:13:26.581Z,4.47
2018-05-25T22:15:52.805Z,3.07
2018-05-25T22:18:19.428Z,2.80
2018-05-25T22:20:46.156Z,3.70
2018-05-25T22:23:12.381Z,8.00
2018-05-25T22:25:38.626Z,2.97
2018-05-25T22:28:05.216Z,3.30
2018-05-25T22:30:31.441Z,4.53
2018-05-25T22:32:57.684Z,3.73
2018-05-25T22:35:24.420Z,5.30
2018-05-25T22:37:51.381Z,3.47
2018-05-25T22:40:18.128Z,3.10
2018-05-25T22:42:58.370Z,3.20
2018-05-25T22:45:37.637Z,6.63
2018-05-25T22:48:16.561Z,3.70
2018-05-25T22:50:56.413Z,3.83
2018-05-25T22:53:29.762Z,3.43
2018-05-25T22:55:56.539Z,3.23
2018-05-25T22:58:24.212Z,2.50
2018-05-25T23:00:50.457Z,1.87
2018-05-25T23:03:16.689Z,2.60
2018-05-25T23:05:42.959Z,5.13
2018-05-25T23:08:09.206Z,4.40
2018-05-25T23:10:35.522Z,3.90
2018-05-25T23:13:02.288Z,3.03
2018-05-25T23:15:28.514Z,2.43
2018-05-25T23:17:55.464Z,2.67
2018-05-25T23:20:21.688Z,2.50
2018-05-25T23:22:49.245Z,4.30
2018-05-25T23:25:15.480Z,2.50
2018-05-25T23:27:42.403Z,2.70
2018-05-25T23:30:09.089Z,3.83
2018-05-25T23:32:36.098Z,3.70
2018-05-25T23:35:02.980Z,4.33
2018-05-25T23:37:29.633Z,3.67
2018-05-25T23:39:56.234Z,3.80
2018-05-25T23:42:22.969Z,6.10
2018-05-25T23:44:49.929Z,3.67
2018-05-25T23:47:16.976Z,3.83
2018-05-25T23:49:43.932Z,3.63
2018-05-25T23:52:10.480Z,2.60
2018-05-25T23:54:37.186Z,2.77
2018-05-25T23:57:04.157Z,2.70
2018-05-25T23:59:30.913Z,5.60
